createdAt,value
2018-05-23T00:00:16.142Z,1010.83
2018-05-23T00:01:16.130Z,1010.82
2018-05-23T00:02:16.120Z,1010.84
2018-05-23T00:03:16.102Z,1010.79
2018-05-23T00:04:16.098Z,1010.79
2018-05-23T00:05:16.077Z,1010.77
2018-05-23T00:06:16.064Z,1010.78
2018-05-23T00:07:16.050Z,1010.81
2018-05-23T00:08:16.037Z,1010.84
2018-05-23T00:09:16.031Z,1010.80
2018-05-23T00:10:16.012Z,1010.89
2018-05-23T00:11:15.995Z,1010.86
2018-05-23T00:12:15.986Z,1010.83
2018-05-23T00:13:15.972Z,1010.85
2018-05-23T00:14:15.960Z,1010.85
2018-05-23T00:15:15.944Z,1010.82
2018-05-23T00:16:15.932Z,1010.87
2018-05-23T00:17:15.920Z,1010.85
2018-05-23T00:18:15.908Z,1010.83
2018-05-23T00:19:15.892Z,1010.87
2018-05-23T00:20:15.881Z,1010.82
2018-05-23T00:21:15.867Z,1010.83
2018-05-23T00:22:15.854Z,1010.81
2018-05-23T00:23:15.842Z,1010.85
2018-05-23T00:24:15.833Z,1010.81
2018-05-23T00:25:15.816Z,1010.81
2018-05-23T00:26:15.806Z,1010.78
2018-05-23T00:27:15.787Z,1010.78
2018-05-23T00:28:15.787Z,1010.75
2018-05-23T00:29:15.768Z,1010.76
2018-05-23T00:30:15.753Z,1010.77
2018-05-23T00:31:15.744Z,1010.72
2018-05-23T00:32:15.724Z,1010.73
2018-05-23T00:33:15.710Z,1010.71
2018-05-23T00:34:15.749Z,1010.71
2018-05-23T00:35:15.684Z,1010.71
2018-05-23T00:36:15.688Z,1010.72
2018-05-23T00:37:15.658Z,1010.71
2018-05-23T00:38:15.646Z,1010.74
2018-05-23T00:39:15.631Z,1010.74
2018-05-23T00:40:15.619Z,1010.74
2018-05-23T00:41:15.606Z,1010.72
2018-05-23T00:42:15.594Z,1010.73
2018-05-23T00:43:15.578Z,1010.74
2018-05-23T00:44:15.566Z,1010.77
2018-05-23T00:45:15.553Z,1010.75
2018-05-23T00:46:15.557Z,1010.72
2018-05-23T00:47:15.532Z,1010.74
2018-05-23T00:48:15.515Z,1010.75
2018-05-23T00:49:15.502Z,1010.71
2018-05-23T00:50:15.595Z,1010.72
2018-05-23T00:51:15.483Z,1010.72
2018-05-23T00:52:15.464Z,1010.73
2018-05-23T00:53:15.449Z,1010.73
2018-05-23T00:54:15.440Z,1010.78
2018-05-23T00:55:15.424Z,1010.75
2018-05-23T00:56:15.414Z,1010.76
2018-05-23T00:57:15.397Z,1010.75
2018-05-23T00:58:15.386Z,1010.71
2018-05-23T00:59:15.373Z,1010.77
2018-05-23T01:00:15.357Z,1010.75
2018-05-23T01:01:15.343Z,1010.77
2018-05-23T01:02:15.333Z,1010.75
2018-05-23T01:03:15.320Z,1010.77
2018-05-23T01:04:15.308Z,1010.78
2018-05-23T01:05:15.292Z,1010.74
2018-05-23T01:06:15.335Z,1010.74
2018-05-23T01:07:15.263Z,1010.72
2018-05-23T01:08:15.271Z,1010.73
2018-05-23T01:09:15.247Z,1010.74
2018-05-23T01:10:15.227Z,1010.73
2018-05-23T01:11:15.211Z,1010.76
2018-05-23T01:12:15.208Z,1010.76
2018-05-23T01:13:15.186Z,1010.71
2018-05-23T01:14:15.175Z,1010.74
2018-05-23T01:15:15.161Z,1010.73
2018-05-23T01:16:15.151Z,1010.75
2018-05-23T01:17:15.132Z,1010.76
2018-05-23T01:18:15.119Z,1010.79
2018-05-23T01:19:15.106Z,1010.78
2018-05-23T01:20:15.093Z,1010.78
2018-05-23T01:21:15.081Z,1010.82
2018-05-23T01:22:15.068Z,1010.80
2018-05-23T01:23:15.052Z,1010.80
2018-05-23T01:24:15.042Z,1010.80
2018-05-23T01:25:15.029Z,1010.86
2018-05-23T01:26:15.016Z,1010.81
2018-05-23T01:27:15.000Z,1010.84
2018-05-23T01:28:14.993Z,1010.83
2018-05-23T01:29:14.976Z,1010.85
2018-05-23T01:30:14.962Z,1010.81
2018-05-23T01:31:14.948Z,1010.84
2018-05-23T01:32:14.933Z,1010.84
2018-05-23T01:33:14.921Z,1010.86
2018-05-23T01:34:14.907Z,1010.89
2018-05-23T01:35:14.893Z,1010.90
2018-05-23T01:36:14.881Z,1010.93
2018-05-23T01:37:14.868Z,1010.94
2018-05-23T01:38:14.856Z,1010.92
2018-05-23T01:39:14.849Z,1010.93
2018-05-23T01:40:14.832Z,1010.90
2018-05-23T01:41:14.814Z,1010.89
2018-05-23T01:42:14.802Z,1010.95
2018-05-23T01:43:14.786Z,1010.89
2018-05-23T01:44:14.774Z,1010.86
2018-05-23T01:45:14.764Z,1010.86
2018-05-23T01:46:14.893Z,1010.88
2018-05-23T01:47:14.747Z,1010.89
2018-05-23T01:48:14.720Z,1010.85
2018-05-23T01:49:14.760Z,1010.78
2018-05-23T01:50:14.695Z,1010.79
2018-05-23T01:51:14.681Z,1010.82
2018-05-23T01:52:14.672Z,1010.80
2018-05-23T01:53:14.655Z,1010.83
2018-05-23T01:54:14.644Z,1010.84
2018-05-23T01:55:14.629Z,1010.82
2018-05-23T01:56:14.615Z,1010.83
2018-05-23T01:57:14.602Z,1010.83
2018-05-23T01:58:14.598Z,1010.88
2018-05-23T01:59:14.576Z,1010.82
2018-05-23T02:00:14.566Z,1010.86
2018-05-23T02:01:14.550Z,1010.87
2018-05-23T02:02:14.538Z,1010.89
2018-05-23T02:03:14.522Z,1010.89
2018-05-23T02:04:14.509Z,1010.90
2018-05-23T02:05:14.504Z,1010.89
2018-05-23T02:06:14.489Z,1010.88
2018-05-23T02:07:14.469Z,1010.86
2018-05-23T02:08:14.464Z,1010.85
2018-05-23T02:09:14.444Z,1010.85
2018-05-23T02:10:14.503Z,1010.88
2018-05-23T02:11:14.425Z,1010.90
2018-05-23T02:12:14.412Z,1010.85
2018-05-23T02:13:14.392Z,1010.90
2018-05-23T02:14:14.385Z,1010.89
2018-05-23T02:15:14.361Z,1010.92
2018-05-23T02:16:14.354Z,1010.90
2018-05-23T02:17:14.347Z,1010.95
2018-05-23T02:18:14.331Z,1010.88
2018-05-23T02:19:14.309Z,1010.94
2018-05-23T02:20:14.295Z,1010.96
2018-05-23T02:21:14.283Z,1010.93
2018-05-23T02:22:14.270Z,1010.97
2018-05-23T02:23:14.258Z,1010.95
2018-05-23T02:24:14.243Z,1010.94
2018-05-23T02:25:14.230Z,1010.96
2018-05-23T02:26:14.222Z,1010.94
2018-05-23T02:27:14.204Z,1010.99
2018-05-23T02:28:14.190Z,1010.98
2018-05-23T02:29:14.184Z,1010.96
2018-05-23T02:30:14.169Z,1010.96
2018-05-23T02:31:14.149Z,1010.99
2018-05-23T02:32:14.144Z,1010.98
2018-05-23T02:33:14.123Z,1011.00
2018-05-23T02:34:14.112Z,1011.04
2018-05-23T02:35:14.100Z,1010.97
2018-05-23T02:36:14.090Z,1010.98
2018-05-23T02:37:14.082Z,1010.92
2018-05-23T02:38:14.056Z,1011.00
2018-05-23T02:39:14.042Z,1010.99
2018-05-23T02:40:14.028Z,1010.99
2018-05-23T02:41:14.016Z,1010.98
2018-05-23T02:42:14.003Z,1010.97
2018-05-23T02:43:13.986Z,1011.01
2018-05-23T02:44:13.975Z,1011.00
2018-05-23T02:45:13.963Z,1011.04
2018-05-23T02:46:13.951Z,1011.04
2018-05-23T02:47:14.097Z,1011.03
2018-05-23T02:48:13.930Z,1011.06
2018-05-23T02:49:13.908Z,1011.03
2018-05-23T02:50:13.895Z,1011.04
2018-05-23T02:51:13.880Z,1011.05
2018-05-23T02:52:13.877Z,1011.10
2018-05-23T02:53:13.854Z,1011.07
2018-05-23T02:54:13.845Z,1011.07
2018-05-23T02:55:13.829Z,1011.08
2018-05-23T02:56:13.814Z,1011.08
2018-05-23T02:57:13.800Z,1011.07
2018-05-23T02:58:13.788Z,1011.07
2018-05-23T02:59:13.772Z,1011.06
2018-05-23T03:00:13.766Z,1011.07
2018-05-23T03:01:13.747Z,1011.10
2018-05-23T03:02:13.734Z,1011.13
2018-05-23T03:03:13.719Z,1011.11
2018-05-23T03:04:13.707Z,1011.11
2018-05-23T03:05:13.692Z,1011.12
2018-05-23T03:06:13.683Z,1011.11
2018-05-23T03:07:13.677Z,1011.12
2018-05-23T03:08:13.650Z,1011.10
2018-05-23T03:09:13.648Z,1011.13
2018-05-23T03:10:13.624Z,1011.13
2018-05-23T03:11:13.610Z,1011.12
2018-05-23T03:12:13.597Z,1011.12
2018-05-23T03:13:13.584Z,1011.16
2018-05-23T03:14:13.571Z,1011.19
2018-05-23T03:15:13.555Z,1011.16
2018-05-23T03:16:13.542Z,1011.19
2018-05-23T03:17:13.529Z,1011.20
2018-05-23T03:18:13.516Z,1011.25
2018-05-23T03:19:13.509Z,1011.22
2018-05-23T03:20:13.489Z,1011.20
2018-05-23T03:21:13.474Z,1011.17
2018-05-23T03:22:13.482Z,1011.24
2018-05-23T03:23:13.448Z,1011.25
2018-05-23T03:24:13.433Z,1011.29
2018-05-23T03:25:13.423Z,1011.26
2018-05-23T03:26:13.408Z,1011.26
2018-05-23T03:27:13.401Z,1011.27
2018-05-23T03:28:13.382Z,1011.32
2018-05-23T03:29:13.367Z,1011.32
2018-05-23T03:30:13.353Z,1011.34
2018-05-23T03:31:13.339Z,1011.37
2018-05-23T03:32:13.330Z,1011.36
2018-05-23T03:33:13.319Z,1011.35
2018-05-23T03:34:13.300Z,1011.38
2018-05-23T03:35:13.284Z,1011.36
2018-05-23T03:36:13.272Z,1011.40
2018-05-23T03:37:13.257Z,1011.39
2018-05-23T03:38:13.244Z,1011.44
2018-05-23T03:39:13.230Z,1011.44
2018-05-23T03:40:13.219Z,1011.45
2018-05-23T03:41:13.205Z,1011.47
2018-05-23T03:42:13.200Z,1011.43
2018-05-23T03:43:13.184Z,1011.53
2018-05-23T03:44:13.170Z,1011.53
2018-05-23T03:45:13.149Z,1011.53
2018-05-23T03:46:13.135Z,1011.55
2018-05-23T03:47:13.122Z,1011.55
2018-05-23T03:48:13.111Z,1011.56
2018-05-23T03:49:13.095Z,1011.53
2018-05-23T03:50:13.081Z,1011.54
2018-05-23T03:51:13.067Z,1011.52
2018-05-23T03:52:13.055Z,1011.50
2018-05-23T03:53:13.047Z,1011.53
2018-05-23T03:54:13.027Z,1011.52
2018-05-23T03:55:13.084Z,1011.51
2018-05-23T03:56:12.999Z,1011.48
2018-05-23T03:57:13.087Z,1011.48
2018-05-23T03:58:12.973Z,1011.52
2018-05-23T03:59:12.966Z,1011.53
2018-05-23T04:00:12.945Z,1011.54
2018-05-23T04:01:12.931Z,1011.57
2018-05-23T04:02:12.917Z,1011.57
2018-05-23T04:03:12.905Z,1011.61
2018-05-23T04:04:12.913Z,1011.57
2018-05-23T04:05:12.878Z,1011.60
2018-05-23T04:06:12.863Z,1011.63
2018-05-23T04:07:12.851Z,1011.61
2018-05-23T04:08:12.836Z,1011.62
2018-05-23T04:09:12.823Z,1011.65
2018-05-23T04:10:12.820Z,1011.68
2018-05-23T04:11:12.802Z,1011.66
2018-05-23T04:12:12.780Z,1011.69
2018-05-23T04:13:12.777Z,1011.72
2018-05-23T04:14:12.755Z,1011.79
2018-05-23T04:15:12.739Z,1011.76
2018-05-23T04:16:12.733Z,1011.73
2018-05-23T04:17:12.721Z,1011.74
2018-05-23T04:18:12.700Z,1011.76
2018-05-23T04:19:12.691Z,1011.79
2018-05-23T04:20:12.681Z,1011.81
2018-05-23T04:21:12.663Z,1011.80
2018-05-23T04:22:12.648Z,1011.83
2018-05-23T04:23:12.635Z,1011.84
2018-05-23T04:24:12.620Z,1011.83
2018-05-23T04:25:12.604Z,1011.86
2018-05-23T04:26:12.591Z,1011.84
2018-05-23T04:27:12.580Z,1011.87
2018-05-23T04:28:12.566Z,1011.83
2018-05-23T04:29:12.561Z,1011.82
2018-05-23T04:30:12.539Z,1011.84
2018-05-23T04:31:12.532Z,1011.85
2018-05-23T04:32:12.509Z,1011.87
2018-05-23T04:33:12.501Z,1011.91
2018-05-23T04:34:12.534Z,1011.91
2018-05-23T04:35:12.473Z,1011.90
2018-05-23T04:36:12.456Z,1011.91
2018-05-23T04:37:12.450Z,1011.89
2018-05-23T04:38:12.435Z,1011.96
2018-05-23T04:39:12.446Z,1011.98
2018-05-23T04:40:12.407Z,1011.98
2018-05-23T04:41:12.400Z,1011.96
2018-05-23T04:42:12.378Z,1011.97
2018-05-23T04:43:12.371Z,1011.96
2018-05-23T04:44:12.358Z,1011.98
2018-05-23T04:45:12.337Z,1011.98
2018-05-23T04:46:12.322Z,1011.99
2018-05-23T04:47:12.309Z,1011.99
2018-05-23T04:48:12.299Z,1012.00
2018-05-23T04:49:12.284Z,1012.00
2018-05-23T04:50:12.421Z,1012.04
2018-05-23T04:51:12.261Z,1012.06
2018-05-23T04:52:12.247Z,1012.05
2018-05-23T04:53:12.229Z,1012.01
2018-05-23T04:54:12.215Z,1012.05
2018-05-23T04:55:12.201Z,1012.06
2018-05-23T04:56:12.196Z,1012.04
2018-05-23T04:57:12.177Z,1012.05
2018-05-23T04:58:12.164Z,1012.08
2018-05-23T04:59:12.151Z,1012.09
2018-05-23T05:00:12.136Z,1012.10
2018-05-23T05:01:12.123Z,1012.12
2018-05-23T05:02:12.110Z,1012.17
2018-05-23T05:03:12.104Z,1012.19
2018-05-23T05:04:12.083Z,1012.19
2018-05-23T05:05:12.079Z,1012.22
2018-05-23T05:06:12.160Z,1012.25
2018-05-23T05:07:12.044Z,1012.28
2018-05-23T05:08:12.030Z,1012.26
2018-05-23T05:09:12.017Z,1012.27
2018-05-23T05:10:12.004Z,1012.27
2018-05-23T05:11:11.990Z,1012.32
2018-05-23T05:12:11.977Z,1012.34
2018-05-23T05:13:11.972Z,1012.39
2018-05-23T05:14:11.952Z,1012.41
2018-05-23T05:15:11.939Z,1012.41
2018-05-23T05:16:11.926Z,1012.46
2018-05-23T05:17:11.913Z,1012.43
2018-05-23T05:18:11.900Z,1012.43
2018-05-23T05:19:11.886Z,1012.42
2018-05-23T05:20:11.872Z,1012.45
2018-05-23T05:21:11.859Z,1012.47
2018-05-23T05:22:11.846Z,1012.46
2018-05-23T05:23:11.839Z,1012.47
2018-05-23T05:24:11.822Z,1012.49
2018-05-23T05:25:11.806Z,1012.51
2018-05-23T05:26:11.793Z,1012.54
2018-05-23T05:27:11.781Z,1012.54
2018-05-23T05:28:11.772Z,1012.57
2018-05-23T05:29:11.757Z,1012.58
2018-05-23T05:30:11.744Z,1012.58
2018-05-23T05:31:11.730Z,1012.59
2018-05-23T05:32:11.723Z,1012.60
2018-05-23T05:33:11.706Z,1012.59
2018-05-23T05:34:11.698Z,1012.63
2018-05-23T05:35:11.687Z,1012.64
2018-05-23T05:36:11.676Z,1012.68
2018-05-23T05:37:11.653Z,1012.66
2018-05-23T05:38:11.639Z,1012.70
2018-05-23T05:39:11.643Z,1012.70
2018-05-23T05:40:11.692Z,1012.76
2018-05-23T05:41:11.602Z,1012.72
2018-05-23T05:42:11.594Z,1012.66
2018-05-23T05:43:11.579Z,1012.69
2018-05-23T05:44:11.564Z,1012.73
2018-05-23T05:45:11.552Z,1012.69
2018-05-23T05:46:11.539Z,1012.71
2018-05-23T05:47:11.525Z,1012.76
2018-05-23T05:48:11.512Z,1012.78
2018-05-23T05:49:11.501Z,1012.77
2018-05-23T05:50:11.499Z,1012.81
2018-05-23T05:51:11.474Z,1012.83
2018-05-23T05:52:11.463Z,1012.82
2018-05-23T05:53:11.450Z,1012.86
2018-05-23T05:54:11.438Z,1012.87
2018-05-23T05:55:11.426Z,1012.87
2018-05-23T05:56:11.417Z,1012.88
2018-05-23T05:57:11.405Z,1012.90
2018-05-23T05:58:11.387Z,1012.97
2018-05-23T05:59:11.376Z,1012.96
2018-05-23T06:00:11.372Z,1012.98
2018-05-23T06:01:11.355Z,1012.99
2018-05-23T06:02:11.340Z,1013.02
2018-05-23T06:03:11.329Z,1013.03
2018-05-23T06:04:11.324Z,1013.03
2018-05-23T06:05:11.304Z,1013.07
2018-05-23T06:06:11.291Z,1013.09
2018-05-23T06:07:11.285Z,1013.10
2018-05-23T06:08:11.270Z,1013.13
2018-05-23T06:09:11.315Z,1013.15
2018-05-23T06:10:11.242Z,1013.19
2018-05-23T06:11:11.231Z,1013.20
2018-05-23T06:12:11.218Z,1013.20
2018-05-23T06:13:11.221Z,1013.17
2018-05-23T06:14:11.193Z,1013.23
2018-05-23T06:15:11.188Z,1013.24
2018-05-23T06:16:11.170Z,1013.25
2018-05-23T06:17:11.157Z,1013.27
2018-05-23T06:18:11.150Z,1013.32
2018-05-23T06:19:11.132Z,1013.28
2018-05-23T06:20:11.121Z,1013.30
2018-05-23T06:21:11.110Z,1013.27
2018-05-23T06:22:11.099Z,1013.30
2018-05-23T06:23:11.097Z,1013.27
2018-05-23T06:24:11.079Z,1013.32
2018-05-23T06:25:11.089Z,1013.32
2018-05-23T06:26:11.058Z,1013.36
2018-05-23T06:27:11.038Z,1013.42
2018-05-23T06:28:11.035Z,1013.41
2018-05-23T06:29:11.016Z,1013.41
2018-05-23T06:30:11.158Z,1013.44
2018-05-23T06:31:10.994Z,1013.43
2018-05-23T06:32:10.991Z,1013.44
2018-05-23T06:33:10.973Z,1013.47
2018-05-23T06:34:10.966Z,1013.47
2018-05-23T06:35:10.958Z,1013.47
2018-05-23T06:36:10.937Z,1013.49
2018-05-23T06:37:10.926Z,1013.51
2018-05-23T06:38:10.918Z,1013.55
2018-05-23T06:39:10.902Z,1013.58
2018-05-23T06:40:10.892Z,1013.55
2018-05-23T06:41:10.881Z,1013.54
2018-05-23T06:42:10.876Z,1013.57
2018-05-23T06:43:10.859Z,1013.59
2018-05-23T06:44:10.848Z,1013.60
2018-05-23T06:45:10.836Z,1013.65
2018-05-23T06:46:10.827Z,1013.61
2018-05-23T06:47:10.817Z,1013.63
2018-05-23T06:48:10.804Z,1013.64
2018-05-23T06:49:10.794Z,1013.63
2018-05-23T06:50:10.812Z,1013.64
2018-05-23T06:51:10.772Z,1013.64
2018-05-23T06:52:10.762Z,1013.66
2018-05-23T06:53:10.752Z,1013.66
2018-05-23T06:54:10.741Z,1013.69
2018-05-23T06:55:10.739Z,1013.71
2018-05-23T06:56:10.725Z,1013.70
2018-05-23T06:57:10.721Z,1013.76
2018-05-23T06:58:10.707Z,1013.72
2018-05-23T06:59:10.686Z,1013.69
2018-05-23T07:00:10.677Z,1013.73
2018-05-23T07:01:10.670Z,1013.73
2018-05-23T07:02:10.656Z,1013.76
2018-05-23T07:03:10.645Z,1013.78
2018-05-23T07:04:10.635Z,1013.74
2018-05-23T07:05:10.625Z,1013.76
2018-05-23T07:06:10.618Z,1013.76
2018-05-23T07:07:10.612Z,1013.84
2018-05-23T07:08:10.595Z,1013.82
2018-05-23T07:09:10.581Z,1013.79
2018-05-23T07:10:10.571Z,1013.84
2018-05-23T07:11:10.593Z,1013.84
2018-05-23T07:12:10.559Z,1013.88
2018-05-23T07:13:10.544Z,1013.91
2018-05-23T07:14:10.532Z,1013.92
2018-05-23T07:15:10.521Z,1013.92
2018-05-23T07:16:10.506Z,1013.92
2018-05-23T07:17:10.553Z,1013.94
2018-05-23T07:18:10.574Z,1013.97
2018-05-23T07:19:10.480Z,1013.98
2018-05-23T07:20:10.473Z,1013.97
2018-05-23T07:21:10.459Z,1013.96
2018-05-23T07:22:10.449Z,1014.00
2018-05-23T07:23:10.440Z,1013.99
2018-05-23T07:24:10.435Z,1014.02
2018-05-23T07:25:10.415Z,1014.03
2018-05-23T07:26:10.408Z,1014.06
2018-05-23T07:27:10.393Z,1014.05
2018-05-23T07:28:10.384Z,1014.03
2018-05-23T07:29:10.374Z,1014.04
2018-05-23T07:30:10.374Z,1014.03
2018-05-23T07:31:10.355Z,1014.01
2018-05-23T07:32:10.345Z,1014.06
2018-05-23T07:33:10.329Z,1014.10
2018-05-23T07:34:10.320Z,1014.07
2018-05-23T07:35:10.310Z,1014.10
2018-05-23T07:36:10.304Z,1014.12
2018-05-23T07:37:10.296Z,1014.08
2018-05-23T07:38:10.280Z,1014.10
2018-05-23T07:39:10.325Z,1014.11
2018-05-23T07:40:10.269Z,1014.12
2018-05-23T07:41:10.250Z,1014.10
2018-05-23T07:42:10.239Z,1014.15
2018-05-23T07:43:10.227Z,1014.14
2018-05-23T07:44:10.216Z,1014.16
2018-05-23T07:45:10.206Z,1014.14
2018-05-23T07:46:10.196Z,1014.15
2018-05-23T07:47:10.189Z,1014.14
2018-05-23T07:48:10.176Z,1014.17
2018-05-23T07:49:10.166Z,1014.19
2018-05-23T07:50:10.164Z,1014.17
2018-05-23T07:51:10.161Z,1014.18
2018-05-23T07:52:10.137Z,1014.22
2018-05-23T07:53:10.128Z,1014.23
2018-05-23T07:54:10.119Z,1014.26
2018-05-23T07:55:10.110Z,1014.26
2018-05-23T07:56:10.101Z,1014.29
2018-05-23T07:57:10.089Z,1014.29
2018-05-23T07:58:10.083Z,1014.32
2018-05-23T07:59:10.071Z,1014.34
2018-05-23T08:00:10.071Z,1014.32
2018-05-23T08:01:10.056Z,1014.34
2018-05-23T08:02:10.044Z,1014.38
2018-05-23T08:03:10.035Z,1014.38
2018-05-23T08:04:10.031Z,1014.34
2018-05-23T08:05:10.019Z,1014.35
2018-05-23T08:06:10.012Z,1014.34
2018-05-23T08:07:10.018Z,1014.31
2018-05-23T08:08:09.989Z,1014.31
2018-05-23T08:09:09.981Z,1014.29
2018-05-23T08:10:09.977Z,1014.35
2018-05-23T08:11:09.967Z,1014.31
2018-05-23T08:12:09.953Z,1014.33
2018-05-23T08:13:09.947Z,1014.34
2018-05-23T08:14:09.937Z,1014.32
2018-05-23T08:15:09.936Z,1014.29
2018-05-23T08:16:09.920Z,1014.29
2018-05-23T08:17:09.913Z,1014.32
2018-05-23T08:18:09.986Z,1014.28
2018-05-23T08:19:09.894Z,1014.32
2018-05-23T08:20:09.893Z,1014.32
2018-05-23T08:21:09.876Z,1014.32
2018-05-23T08:22:09.872Z,1014.30
2018-05-23T08:23:09.861Z,1014.29
2018-05-23T08:24:09.849Z,1014.28
2018-05-23T08:25:09.850Z,1014.30
2018-05-23T08:26:09.898Z,1014.30
2018-05-23T08:27:09.825Z,1014.34
2018-05-23T08:28:09.815Z,1014.31
2018-05-23T08:29:09.804Z,1014.33
2018-05-23T08:30:09.797Z,1014.33
2018-05-23T08:31:09.790Z,1014.35
2018-05-23T08:32:09.782Z,1014.38
2018-05-23T08:33:09.769Z,1014.44
2018-05-23T08:34:09.761Z,1014.46
2018-05-23T08:35:09.764Z,1014.40
2018-05-23T08:36:09.750Z,1014.40
2018-05-23T08:37:09.735Z,1014.44
2018-05-23T08:38:09.724Z,1014.47
2018-05-23T08:39:09.722Z,1014.45
2018-05-23T08:40:09.704Z,1014.46
2018-05-23T08:41:09.713Z,1014.46
2018-05-23T08:42:09.693Z,1014.45
2018-05-23T08:43:09.681Z,1014.45
2018-05-23T08:44:09.673Z,1014.45
2018-05-23T08:45:09.670Z,1014.51
2018-05-23T08:46:09.688Z,1014.49
2018-05-23T08:47:09.643Z,1014.48
2018-05-23T08:48:09.645Z,1014.48
2018-05-23T08:49:09.634Z,1014.53
2018-05-23T08:50:09.618Z,1014.50
2018-05-23T08:51:09.611Z,1014.53
2018-05-23T08:52:09.648Z,1014.50
2018-05-23T08:53:09.591Z,1014.50
2018-05-23T08:54:09.590Z,1014.51
2018-05-23T08:55:09.580Z,1014.48
2018-05-23T08:56:09.575Z,1014.47
2018-05-23T08:57:09.563Z,1014.51
2018-05-23T08:58:09.549Z,1014.52
2018-05-23T08:59:09.537Z,1014.56
2018-05-23T09:00:09.536Z,1014.51
2018-05-23T09:01:09.520Z,1014.59
2018-05-23T09:02:09.522Z,1014.63
2018-05-23T09:03:09.506Z,1014.59
2018-05-23T09:04:09.494Z,1014.61
2018-05-23T09:05:09.494Z,1014.57
2018-05-23T09:06:09.499Z,1014.53
2018-05-23T09:07:09.468Z,1014.55
2018-05-23T09:08:09.459Z,1014.56
2018-05-23T09:09:09.467Z,1014.57
2018-05-23T09:10:09.441Z,1014.57
2018-05-23T09:11:09.440Z,1014.59
2018-05-23T09:12:09.477Z,1014.59
2018-05-23T09:13:09.414Z,1014.62
2018-05-23T09:14:09.409Z,1014.69
2018-05-23T09:15:09.404Z,1014.73
2018-05-23T09:16:09.390Z,1014.72
2018-05-23T09:17:09.381Z,1014.75
2018-05-23T09:18:09.380Z,1014.76
2018-05-23T09:19:09.368Z,1014.75
2018-05-23T09:20:09.362Z,1014.75
2018-05-23T09:21:09.346Z,1014.84
2018-05-23T09:22:09.337Z,1014.82
2018-05-23T09:23:09.332Z,1014.77
2018-05-23T09:24:09.325Z,1014.82
2018-05-23T09:25:09.311Z,1014.82
2018-05-23T09:26:09.301Z,1014.84
2018-05-23T09:27:09.295Z,1014.84
2018-05-23T09:28:09.285Z,1014.87
2018-05-23T09:29:09.281Z,1014.86
2018-05-23T09:30:09.269Z,1014.92
2018-05-23T09:31:09.259Z,1014.88
2018-05-23T09:32:09.277Z,1014.92
2018-05-23T09:33:09.241Z,1014.91
2018-05-23T09:34:09.233Z,1014.95
2018-05-23T09:35:09.333Z,1014.89
2018-05-23T09:36:09.225Z,1014.92
2018-05-23T09:37:09.221Z,1014.96
2018-05-23T09:38:09.211Z,1014.95
2018-05-23T09:39:09.227Z,1014.99
2018-05-23T09:40:09.190Z,1015.00
2018-05-23T09:41:09.178Z,1014.96
2018-05-23T09:42:09.171Z,1014.97
2018-05-23T09:43:09.162Z,1015.05
2018-05-23T09:44:09.155Z,1015.15
2018-05-23T09:45:09.255Z,1015.00
2018-05-23T09:46:09.141Z,1015.06
2018-05-23T09:47:09.134Z,1015.01
2018-05-23T09:48:09.138Z,1015.00
2018-05-23T09:49:09.120Z,1015.01
2018-05-23T09:50:09.114Z,1015.08
2018-05-23T09:51:09.112Z,1015.04
2018-05-23T09:52:09.106Z,1015.08
2018-05-23T09:53:09.095Z,1015.10
2018-05-23T09:54:09.085Z,1015.12
2018-05-23T09:55:09.246Z,1015.11
2018-05-23T09:56:09.072Z,1015.12
2018-05-23T09:57:09.065Z,1015.12
2018-05-23T09:58:09.058Z,1015.20
2018-05-23T09:59:09.051Z,1015.18
2018-05-23T10:00:09.045Z,1015.16
2018-05-23T10:01:09.042Z,1015.17
2018-05-23T10:02:09.033Z,1015.19
2018-05-23T10:03:09.024Z,1015.19
2018-05-23T10:04:09.022Z,1015.16
2018-05-23T10:05:09.028Z,1015.20
2018-05-23T10:06:09.008Z,1015.18
2018-05-23T10:07:08.999Z,1015.22
2018-05-23T10:08:08.995Z,1015.24
2018-05-23T10:09:08.997Z,1015.19
2018-05-23T10:10:08.982Z,1015.26
2018-05-23T10:11:09.072Z,1015.23
2018-05-23T10:12:09.127Z,1015.28
2018-05-23T10:13:08.968Z,1015.33
2018-05-23T10:14:08.960Z,1015.31
2018-05-23T10:15:08.956Z,1015.29
2018-05-23T10:16:08.964Z,1015.32
2018-05-23T10:17:08.944Z,1015.32
2018-05-23T10:18:08.939Z,1015.37
2018-05-23T10:19:08.934Z,1015.36
2018-05-23T10:20:08.928Z,1015.40
2018-05-23T10:21:08.931Z,1015.37
2018-05-23T10:22:08.919Z,1015.38
2018-05-23T10:23:08.935Z,1015.34
2018-05-23T10:24:08.911Z,1015.39
2018-05-23T10:25:08.908Z,1015.43
2018-05-23T10:26:08.904Z,1015.39
2018-05-23T10:27:08.901Z,1015.43
2018-05-23T10:28:08.896Z,1015.45
2018-05-23T10:29:08.892Z,1015.46
2018-05-23T10:30:08.894Z,1015.50
2018-05-23T10:31:08.894Z,1015.47
2018-05-23T10:32:08.887Z,1015.45
2018-05-23T10:33:08.880Z,1015.46
2018-05-23T10:34:08.877Z,1015.45
2018-05-23T10:35:08.873Z,1015.43
2018-05-23T10:36:08.874Z,1015.47
2018-05-23T10:37:08.866Z,1015.49
2018-05-23T10:38:08.871Z,1015.46
2018-05-23T10:39:08.922Z,1015.45
2018-05-23T10:40:08.856Z,1015.45
2018-05-23T10:41:08.955Z,1015.47
2018-05-23T10:42:08.859Z,1015.47
2018-05-23T10:43:08.847Z,1015.48
2018-05-23T10:44:08.844Z,1015.45
2018-05-23T10:45:08.840Z,1015.53
2018-05-23T10:46:08.888Z,1015.50
2018-05-23T10:47:08.834Z,1015.56
2018-05-23T10:48:08.837Z,1015.50
2018-05-23T10:49:08.827Z,1015.54
2018-05-23T10:50:08.828Z,1015.53
2018-05-23T10:51:08.812Z,1015.53
2018-05-23T10:52:08.973Z,1015.53
2018-05-23T10:53:08.804Z,1015.55
2018-05-23T10:54:08.804Z,1015.55
2018-05-23T10:55:08.804Z,1015.58
2018-05-23T10:56:08.795Z,1015.56
2018-05-23T10:57:08.792Z,1015.60
2018-05-23T10:58:08.787Z,1015.61
2018-05-23T10:59:08.776Z,1015.61
2018-05-23T11:00:08.866Z,1015.57
2018-05-23T11:01:08.762Z,1015.60
2018-05-23T11:02:08.760Z,1015.60
2018-05-23T11:03:08.756Z,1015.61
2018-05-23T11:04:08.754Z,1015.64
2018-05-23T11:05:08.742Z,1015.62
2018-05-23T11:06:08.735Z,1015.58
2018-05-23T11:07:08.729Z,1015.61
2018-05-23T11:08:08.723Z,1015.63
2018-05-23T11:09:08.717Z,1015.61
2018-05-23T11:10:08.710Z,1015.57
2018-05-23T11:11:08.712Z,1015.62
2018-05-23T11:12:08.705Z,1015.60
2018-05-23T11:13:08.692Z,1015.63
2018-05-23T11:14:08.684Z,1015.62
2018-05-23T11:15:08.680Z,1015.63
2018-05-23T11:16:08.678Z,1015.65
2018-05-23T11:17:08.664Z,1015.67
2018-05-23T11:18:08.657Z,1015.65
2018-05-23T11:19:08.657Z,1015.71
2018-05-23T11:20:08.643Z,1015.71
2018-05-23T11:21:08.635Z,1015.74
2018-05-23T11:22:08.636Z,1015.74
2018-05-23T11:23:08.622Z,1015.76
2018-05-23T11:24:08.614Z,1015.75
2018-05-23T11:25:08.607Z,1015.73
2018-05-23T11:26:08.601Z,1015.80
2018-05-23T11:27:08.594Z,1015.73
2018-05-23T11:28:08.588Z,1015.78
2018-05-23T11:29:08.578Z,1015.72
2018-05-23T11:30:08.568Z,1015.71
2018-05-23T11:31:08.561Z,1015.71
2018-05-23T11:32:08.563Z,1015.76
2018-05-23T11:33:08.547Z,1015.75
2018-05-23T11:34:08.539Z,1015.81
2018-05-23T11:35:08.530Z,1015.79
2018-05-23T11:36:08.533Z,1015.78
2018-05-23T11:37:08.518Z,1015.83
2018-05-23T11:38:08.508Z,1015.76
2018-05-23T11:39:08.499Z,1015.78
2018-05-23T11:40:08.496Z,1015.77
2018-05-23T11:41:08.492Z,1015.74
2018-05-23T11:42:08.477Z,1015.71
2018-05-23T11:43:08.468Z,1015.73
2018-05-23T11:44:08.459Z,1015.72
2018-05-23T11:45:08.454Z,1015.76
2018-05-23T11:46:08.452Z,1015.72
2018-05-23T11:47:08.443Z,1015.76
2018-05-23T11:48:08.434Z,1015.76
2018-05-23T11:49:08.421Z,1015.74
2018-05-23T11:50:08.411Z,1015.77
2018-05-23T11:51:08.405Z,1015.77
2018-05-23T11:52:08.431Z,1015.74
2018-05-23T11:53:08.387Z,1015.72
2018-05-23T11:54:08.380Z,1015.78
2018-05-23T11:55:08.369Z,1015.77
2018-05-23T11:56:08.366Z,1015.76
2018-05-23T11:57:08.357Z,1015.76
2018-05-23T11:58:08.345Z,1015.72
2018-05-23T11:59:08.339Z,1015.74
2018-05-23T12:00:08.327Z,1015.73
2018-05-23T12:01:08.318Z,1015.74
2018-05-23T12:02:08.470Z,1015.74
2018-05-23T12:03:08.301Z,1015.72
2018-05-23T12:04:08.293Z,1015.74
2018-05-23T12:05:08.292Z,1015.75